Time;durP1;ratioP1;P1;durP2;ratioP2;P2;SDS_P1;SDS_P2;PMS_P1;PMS_P2;Temp;Humidity;BMP_temperature;BMP_pressure;BME280_temperature;BME280_humidity;BME280_pressure;Samples;Min_cycle;Max_cycle;Signal;HPM_P1;HPM_P2
2022/03/22 00:00:06;;;;;;;26.65;15.30;;;13.00;38.80;;;;;;4964459;28;20054;-43
2022/03/22 00:02:35;;;;;;;27.23;15.10;;;13.00;39.00;;;;;;4965321;28;20054;-43
2022/03/22 00:05:03;;;;;;;21.85;13.50;;;13.00;39.00;;;;;;4961919;28;20054;-45
2022/03/22 00:07:31;;;;;;;24.95;13.25;;;12.90;38.90;;;;;;4964025;28;20047;-43
2022/03/22 00:09:58;;;;;;;29.42;14.10;;;12.90;39.00;;;;;;4964049;28;20495;-44
2022/03/22 00:12:26;;;;;;;27.60;15.13;;;12.90;39.10;;;;;;4964511;28;20050;-46
2022/03/22 00:14:53;;;;;;;28.95;15.30;;;12.90;39.10;;;;;;4962114;28;20073;-43
2022/03/22 00:17:21;;;;;;;28.95;14.82;;;12.90;39.00;;;;;;4963178;28;20058;-43
2022/03/22 00:19:51;;;;;;;29.60;15.30;;;12.90;39.00;;;;;;4964324;28;20061;-43
2022/03/22 00:22:18;;;;;;;26.05;14.63;;;12.90;39.10;;;;;;4964149;28;20054;-43
2022/03/22 00:24:46;;;;;;;33.13;15.93;;;12.90;39.00;;;;;;4960608;28;20062;-44
2022/03/22 00:27:13;;;;;;;29.17;16.95;;;12.80;39.00;;;;;;4963427;28;20054;-45
2022/03/22 00:29:41;;;;;;;28.60;16.50;;;12.80;39.20;;;;;;4964427;28;20446;-44
2022/03/22 00:32:09;;;;;;;26.63;16.00;;;12.80;39.30;;;;;;4963463;28;20058;-43
2022/03/22 00:34:44;;;;;;;29.05;15.52;;;12.80;39.30;;;;;;4960747;28;20053;-43
2022/03/22 00:37:15;;;;;;;26.67;15.10;;;12.80;39.30;;;;;;4964830;28;20399;-43
2022/03/22 00:39:44;;;;;;;27.77;15.60;;;12.70;39.40;;;;;;4964994;28;20065;-43
2022/03/22 00:42:12;;;;;;;24.83;15.18;;;12.70;39.50;;;;;;4964441;28;20053;-45
2022/03/22 00:44:39;;;;;;;24.30;14.52;;;12.70;39.50;;;;;;4958658;28;20408;-43
2022/03/22 00:47:08;;;;;;;27.08;14.75;;;12.70;39.60;;;;;;4963753;28;20065;-43
2022/03/22 00:49:36;;;;;;;29.10;16.20;;;12.60;39.60;;;;;;4962704;28;20042;-43
2022/03/22 00:52:05;;;;;;;27.77;15.95;;;12.60;39.70;;;;;;4964430;28;20062;-42
2022/03/22 00:54:35;;;;;;;31.60;16.17;;;12.60;39.80;;;;;;4962165;28;20057;-43
2022/03/22 00:57:02;;;;;;;30.75;16.40;;;12.50;39.80;;;;;;4962553;28;20054;-43
2022/03/22 01:02:29;;;;;;;33.00;17.27;;;12.50;39.90;;;;;;4921349;29;20059;-43
2022/03/22 01:04:57;;;;;;;30.13;16.02;;;12.50;39.90;;;;;;4917829;29;20059;-42
2022/03/22 01:07:24;;;;;;;29.27;17.25;;;12.40;39.90;;;;;;4938245;28;20109;-43
2022/03/22 01:09:53;;;;;;;33.50;17.38;;;12.40;40.00;;;;;;4963396;28;20062;-46
2022/03/22 01:12:22;;;;;;;32.40;17.17;;;12.40;40.10;;;;;;4963458;28;20055;-43
2022/03/22 01:14:50;;;;;;;26.67;16.15;;;12.30;40.00;;;;;;4961318;28;20058;-43
2022/03/22 01:17:18;;;;;;;36.42;17.17;;;12.30;40.00;;;;;;4963254;28;20062;-42
2022/03/22 01:19:46;;;;;;;29.70;16.65;;;12.30;40.10;;;;;;4962123;28;20597;-42
2022/03/22 01:22:15;;;;;;;29.73;16.95;;;12.20;40.00;;;;;;4963131;28;20078;-43
2022/03/22 01:24:43;;;;;;;26.52;16.88;;;12.20;39.90;;;;;;4959132;28;20088;-43
2022/03/22 01:27:12;;;;;;;27.27;15.23;;;12.20;40.00;;;;;;4962606;28;20058;-42
2022/03/22 01:29:40;;;;;;;23.45;14.35;;;12.20;40.00;;;;;;4961555;28;20062;-42
2022/03/22 01:32:09;;;;;;;27.73;15.80;;;12.10;40.00;;;;;;4960660;28;20062;-42
2022/03/22 01:34:36;;;;;;;33.03;15.60;;;12.10;40.00;;;;;;4960888;28;20061;-43
2022/03/22 01:37:05;;;;;;;25.63;14.60;;;12.10;40.00;;;;;;4963650;28;20061;-43
2022/03/22 01:39:32;;;;;;;27.42;14.75;;;12.10;39.90;;;;;;4962597;28;20658;-43
2022/03/22 01:42:00;;;;;;;23.77;13.70;;;12.10;39.90;;;;;;4962805;28;20054;-45
2022/03/22 01:44:29;;;;;;;27.40;14.68;;;12.10;40.00;;;;;;4958476;28;20058;-43
2022/03/22 01:46:59;;;;;;;33.33;15.32;;;12.10;39.80;;;;;;4962266;28;20966;-43
2022/03/22 01:49:27;;;;;;;23.88;13.32;;;12.10;39.80;;;;;;4962137;28;20506;-45
2022/03/22 01:51:56;;;;;;;25.00;13.82;;;12.10;39.80;;;;;;4964047;28;20057;-43
2022/03/22 01:54:24;;;;;;;23.98;13.35;;;12.10;39.90;;;;;;4959184;28;20046;-43
2022/03/22 01:56:52;;;;;;;24.20;15.50;;;12.10;39.90;;;;;;4963197;28;20081;-43
2022/03/22 01:59:19;;;;;;;30.30;14.82;;;12.10;39.90;;;;;;4961437;28;20059;-43
2022/03/22 02:07:22;;;;;;;23.20;13.45;;;12.00;40.00;;;;;;4968687;28;20081;-43
2022/03/22 02:09:49;;;;;;;30.08;15.50;;;12.00;39.90;;;;;;4962924;28;20403;-45
2022/03/22 02:12:17;;;;;;;24.75;15.07;;;12.00;40.00;;;;;;4962867;28;20055;-43
2022/03/22 02:14:44;;;;;;;23.33;13.15;;;11.90;40.00;;;;;;4958537;28;20055;-43
2022/03/22 02:17:13;;;;;;;23.48;14.73;;;11.90;40.10;;;;;;4958801;28;20430;-43
2022/03/22 02:19:41;;;;;;;30.30;15.25;;;11.90;40.00;;;;;;4959669;28;20414;-43
2022/03/22 02:22:11;;;;;;;29.20;16.02;;;11.80;40.10;;;;;;4960235;28;20058;-43
2022/03/22 02:24:40;;;;;;;24.00;14.65;;;11.90;40.10;;;;;;4961049;28;20051;-44
2022/03/22 02:27:09;;;;;;;24.70;13.77;;;11.80;40.10;;;;;;4958809;28;20059;-42
2022/03/22 02:29:37;;;;;;;26.63;16.20;;;11.80;40.20;;;;;;4960058;28;20058;-43
2022/03/22 02:32:07;;;;;;;30.48;16.02;;;11.80;40.20;;;;;;4961009;28;20054;-42
2022/03/22 02:34:36;;;;;;;25.88;15.20;;;11.80;40.20;;;;;;4960536;28;20054;-42
2022/03/22 02:37:04;;;;;;;29.52;14.43;;;11.70;40.30;;;;;;4957788;28;20051;-45
2022/03/22 02:39:32;;;;;;;28.17;16.20;;;11.70;40.20;;;;;;4954294;28;20928;-43
2022/03/22 02:42:01;;;;;;;29.50;15.75;;;11.70;40.20;;;;;;4961136;28;20432;-42
2022/03/22 02:44:29;;;;;;;26.05;14.38;;;11.60;40.10;;;;;;4958435;28;20491;-43
2022/03/22 02:46:56;;;;;;;30.33;16.23;;;11.60;40.10;;;;;;4963392;28;20058;-43
2022/03/22 02:49:24;;;;;;;27.52;15.18;;;11.60;40.10;;;;;;4962754;28;21483;-43
2022/03/22 02:51:51;;;;;;;23.95;13.40;;;11.60;40.00;;;;;;4960307;28;20427;-42
2022/03/22 02:54:19;;;;;;;24.95;14.50;;;11.50;40.10;;;;;;4962639;28;20063;-42
2022/03/22 02:56:46;;;;;;;20.33;12.35;;;11.50;40.20;;;;;;4962556;28;20059;-42
2022/03/22 02:59:15;;;;;;;29.15;14.50;;;11.50;40.20;;;;;;4961074;28;20499;-43
2022/03/22 03:01:42;;;;;;;21.95;13.55;;;11.50;40.20;;;;;;4963802;28;20435;-43
2022/03/22 03:04:10;;;;;;;21.77;12.88;;;11.50;40.30;;;;;;4961994;28;20061;-43
2022/03/22 03:06:38;;;;;;;24.83;13.63;;;11.50;40.30;;;;;;4963494;28;20407;-45
2022/03/22 03:09:05;;;;;;;23.85;13.55;;;11.50;40.40;;;;;;4958908;28;20053;-43
2022/03/22 03:11:33;;;;;;;24.48;13.95;;;11.50;40.40;;;;;;4962841;28;20051;-42
2022/03/22 03:16:46;;;;;;;23.00;13.90;;;11.50;40.40;;;;;;4969083;28;20057;-43
2022/03/22 03:19:14;;;;;;;29.48;15.32;;;11.40;40.40;;;;;;4963141;28;20411;-43
2022/03/22 03:21:41;;;;;;;22.38;13.30;;;11.40;40.40;;;;;;4963697;28;20435;-43
2022/03/22 03:24:09;;;;;;;27.13;14.25;;;11.40;40.40;;;;;;4962543;28;20074;-45
2022/03/22 03:26:37;;;;;;;22.65;13.45;;;11.40;40.40;;;;;;4962909;28;20403;-43
2022/03/22 03:29:05;;;;;;;23.50;14.00;;;11.30;40.40;;;;;;4962796;28;20079;-42
2022/03/22 03:31:32;;;;;;;26.35;15.57;;;11.30;40.40;;;;;;4963722;28;20062;-43
2022/03/22 03:34:01;;;;;;;30.45;16.10;;;11.30;40.40;;;;;;4963319;28;20062;-42
2022/03/22 03:36:29;;;;;;;26.00;14.77;;;11.20;40.20;;;;;;4966497;28;20078;-43
2022/03/22 03:38:56;;;;;;;28.08;15.85;;;11.20;40.20;;;;;;4965963;28;20407;-42
2022/03/22 03:47:07;;;;;;;27.88;14.88;;;11.10;40.20;;;;;;4966582;28;20047;-43
2022/03/22 03:49:38;;;;;;;26.75;14.70;;;11.10;40.30;;;;;;4966525;28;20062;-42
2022/03/22 03:52:07;;;;;;;35.03;14.85;;;11.10;40.30;;;;;;4965853;28;20070;-42
2022/03/22 03:54:35;;;;;;;24.88;14.43;;;11.00;40.20;;;;;;4963142;28;20054;-43
2022/03/22 03:57:03;;;;;;;29.00;16.33;;;11.00;40.30;;;;;;4984977;28;20065;-42
2022/03/22 03:59:30;;;;;;;28.83;15.60;;;11.00;40.40;;;;;;4985594;28;20478;-42
2022/03/22 04:01:58;;;;;;;27.48;15.68;;;11.00;40.40;;;;;;4984988;28;20050;-42
2022/03/22 04:04:25;;;;;;;27.55;15.50;;;10.90;40.30;;;;;;4984286;28;20058;-42
2022/03/22 04:06:54;;;;;;;25.70;14.20;;;10.90;40.30;;;;;;4985282;28;20058;-42
2022/03/22 04:09:22;;;;;;;28.30;15.52;;;10.90;40.40;;;;;;4981862;28;20046;-42
2022/03/22 04:11:50;;;;;;;25.42;14.88;;;10.90;40.40;;;;;;4985442;28;20054;-43
2022/03/22 04:14:17;;;;;;;30.17;15.98;;;10.80;40.30;;;;;;4982976;28;20532;-42
2022/03/22 04:16:46;;;;;;;29.63;14.88;;;10.80;40.40;;;;;;4982476;28;20065;-45
2022/03/22 04:19:13;;;;;;;24.77;14.23;;;10.80;40.40;;;;;;4983813;28;20042;-42
2022/03/22 04:21:41;;;;;;;26.17;15.20;;;10.80;40.50;;;;;;4983066;28;20058;-42
2022/03/22 04:24:11;;;;;;;25.15;14.10;;;10.80;40.50;;;;;;4982340;28;20442;-43
2022/03/22 04:26:40;;;;;;;24.23;13.65;;;10.70;40.50;;;;;;4985175;28;20053;-44
2022/03/22 04:34:42;;;;;;;29.13;14.07;;;10.70;40.60;;;;;;4989326;28;20065;-42
2022/03/22 04:37:12;;;;;;;24.00;12.85;;;10.70;40.60;;;;;;4984823;28;20054;-42
2022/03/22 04:39:42;;;;;;;26.27;14.93;;;10.70;40.60;;;;;;4983363;28;20077;-42
2022/03/22 04:42:10;;;;;;;27.50;14.45;;;10.60;40.50;;;;;;4982901;28;20054;-42
2022/03/22 04:44:38;;;;;;;26.23;14.82;;;10.70;40.50;;;;;;4982017;28;20050;-44
2022/03/22 04:47:06;;;;;;;26.83;15.32;;;10.60;40.50;;;;;;4982902;28;20135;-43
2022/03/22 04:49:34;;;;;;;25.52;14.07;;;10.60;40.50;;;;;;4983087;28;20063;-42
2022/03/22 04:57:33;;;;;;;42.85;21.05;;;10.60;40.60;;;;;;4986763;28;20085;-43
2022/03/22 05:00:01;;;;;;;28.05;15.18;;;10.50;40.50;;;;;;4981741;28;20058;-42
2022/03/22 05:02:28;;;;;;;27.38;15.32;;;10.50;40.60;;;;;;4983058;28;20058;-42
2022/03/22 05:04:56;;;;;;;26.15;14.32;;;10.50;40.60;;;;;;4979194;28;20058;-42
2022/03/22 05:07:23;;;;;;;26.70;16.15;;;10.50;40.60;;;;;;4982999;28;20054;-42
2022/03/22 05:09:52;;;;;;;27.13;13.00;;;10.50;41.10;;;;;;4982113;28;20054;-42
2022/03/22 05:12:19;;;;;;;27.65;11.93;;;10.50;40.60;;;;;;4982589;28;20069;-42
2022/03/22 05:14:50;;;;;;;22.15;12.70;;;10.50;40.50;;;;;;4981926;28;20059;-43
2022/03/22 05:17:21;;;;;;;24.90;13.32;;;10.50;40.60;;;;;;4976527;28;20054;-42
2022/03/22 05:19:50;;;;;;;26.60;13.57;;;10.40;40.60;;;;;;4976259;28;20061;-42
2022/03/22 05:22:18;;;;;;;24.88;13.23;;;10.40;40.70;;;;;;4981989;28;20066;-43
2022/03/22 05:24:46;;;;;;;31.35;16.25;;;10.40;40.60;;;;;;4981517;28;20455;-42
2022/03/22 05:27:18;;;;;;;26.52;14.68;;;10.40;40.60;;;;;;4982739;28;20050;-42
2022/03/22 05:29:45;;;;;;;35.25;16.85;;;10.40;40.60;;;;;;4981947;28;20065;-42
2022/03/22 05:32:12;;;;;;;22.45;13.80;;;10.40;40.60;;;;;;4982547;28;20050;-42
2022/03/22 05:34:40;;;;;;;22.15;13.10;;;10.30;40.70;;;;;;4982268;28;20406;-42
2022/03/22 05:37:08;;;;;;;22.13;12.70;;;10.30;40.70;;;;;;4983599;28;20058;-42
2022/03/22 05:39:36;;;;;;;22.08;12.77;;;10.30;40.80;;;;;;4982977;28;20061;-42
2022/03/22 05:42:04;;;;;;;20.67;12.70;;;10.30;40.80;;;;;;4982650;28;20073;-42
2022/03/22 05:44:35;;;;;;;20.70;12.23;;;10.30;40.90;;;;;;4978271;28;20493;-42
2022/03/22 05:47:02;;;;;;;27.25;13.18;;;10.30;41.00;;;;;;4981090;28;20050;-43
2022/03/22 05:49:30;;;;;;;24.25;14.20;;;10.30;41.00;;;;;;4979540;28;20065;-42
2022/03/22 05:51:58;;;;;;;25.27;13.63;;;10.30;41.00;;;;;;4982136;28;20058;-42
2022/03/22 05:54:26;;;;;;;26.98;13.95;;;10.30;41.10;;;;;;4980187;28;20043;-42
2022/03/22 05:56:54;;;;;;;24.77;13.02;;;10.20;41.00;;;;;;4980455;28;20527;-42
2022/03/22 05:59:21;;;;;;;20.63;12.65;;;10.20;41.10;;;;;;4980927;28;20494;-43
2022/03/22 06:01:50;;;;;;;40.90;21.55;;;10.20;41.10;;;;;;4982426;28;20403;-43
2022/03/22 06:04:19;;;;;;;57.10;26.48;;;10.20;41.20;;;;;;4980872;28;20648;-42
2022/03/22 06:06:47;;;;;;;34.67;17.83;;;10.20;41.20;;;;;;4981793;28;20050;-42
2022/03/22 06:09:15;;;;;;;26.10;14.55;;;10.20;41.30;;;;;;4980920;28;20561;-43
2022/03/22 06:11:43;;;;;;;23.30;12.88;;;10.20;41.30;;;;;;4982697;28;20061;-43
2022/03/22 06:14:10;;;;;;;27.40;13.95;;;10.20;41.30;;;;;;4978054;28;20050;-46
2022/03/22 06:16:38;;;;;;;22.95;13.30;;;10.20;41.20;;;;;;4980838;28;20061;-45
2022/03/22 06:19:07;;;;;;;24.98;13.20;;;10.20;41.40;;;;;;4982266;28;20062;-42
2022/03/22 06:21:34;;;;;;;22.35;12.18;;;10.20;41.40;;;;;;4982148;28;20058;-43
2022/03/22 06:24:01;;;;;;;29.25;12.95;;;10.20;41.40;;;;;;4979468;28;20397;-42
2022/03/22 06:26:29;;;;;;;22.90;13.15;;;10.20;41.40;;;;;;4980668;28;20050;-44
2022/03/22 06:28:57;;;;;;;24.15;13.88;;;10.20;41.40;;;;;;4973284;28;20497;-43
2022/03/22 06:31:24;;;;;;;29.17;15.45;;;10.30;41.50;;;;;;4977892;28;20073;-42
2022/03/22 06:33:52;;;;;;;24.90;14.13;;;10.30;41.40;;;;;;4979737;28;20054;-43
2022/03/22 06:36:21;;;;;;;26.65;14.55;;;10.30;41.40;;;;;;4981947;28;20055;-42
2022/03/22 06:38:49;;;;;;;26.10;14.10;;;10.30;41.50;;;;;;4982057;28;20065;-42
2022/03/22 06:41:16;;;;;;;25.17;14.00;;;10.30;41.50;;;;;;4982585;28;20046;-44
2022/03/22 06:43:44;;;;;;;28.23;14.75;;;10.30;41.70;;;;;;4978949;28;20050;-43
2022/03/22 06:46:11;;;;;;;22.02;13.77;;;10.40;41.80;;;;;;4982188;28;20138;-42
2022/03/22 06:48:39;;;;;;;33.58;16.58;;;10.40;41.80;;;;;;4980602;28;20066;-42
2022/03/22 06:51:07;;;;;;;27.58;15.20;;;10.40;41.70;;;;;;4978630;28;20047;-42
2022/03/22 06:53:36;;;;;;;26.55;13.55;;;10.40;41.60;;;;;;4978925;28;20057;-43
2022/03/22 06:56:05;;;;;;;29.65;14.82;;;10.40;41.50;;;;;;4980872;28;20054;-44
2022/03/22 06:58:32;;;;;;;27.15;14.32;;;10.50;41.80;;;;;;4981267;28;20069;-42
2022/03/22 07:00:59;;;;;;;24.38;15.00;;;10.50;41.90;;;;;;4979339;28;20050;-42
2022/03/22 07:03:27;;;;;;;32.85;15.82;;;10.50;41.90;;;;;;4976266;28;20057;-42
2022/03/22 07:05:55;;;;;;;21.05;14.10;;;10.50;41.70;;;;;;4978813;28;20050;-42
2022/03/22 07:08:23;;;;;;;31.58;15.85;;;10.60;41.80;;;;;;4979355;28;20054;-43
2022/03/22 07:13:33;;;;;;;29.13;14.35;;;10.60;41.80;;;;;;4979984;28;20058;-44
2022/03/22 07:16:01;;;;;;;26.13;14.98;;;10.70;41.70;;;;;;4984114;28;20065;-42
2022/03/22 07:18:29;;;;;;;30.77;15.40;;;10.80;41.80;;;;;;4978603;28;20073;-43
2022/03/22 07:20:56;;;;;;;23.67;14.82;;;10.80;41.70;;;;;;4982094;28;20418;-47
2022/03/22 07:23:24;;;;;;;26.10;14.55;;;10.80;41.70;;;;;;4980854;28;20069;-43
2022/03/22 07:25:53;;;;;;;23.55;14.23;;;10.90;41.70;;;;;;4981521;28;20065;-43
2022/03/22 07:28:20;;;;;;;24.45;14.23;;;10.90;42.20;;;;;;4976973;28;20054;-42
2022/03/22 07:30:48;;;;;;;26.40;14.38;;;11.00;41.80;;;;;;4970476;28;20045;-45
2022/03/22 07:33:16;;;;;;;29.55;15.45;;;11.00;41.80;;;;;;4970305;28;20050;-43
2022/03/22 07:35:43;;;;;;;29.17;15.05;;;11.10;41.70;;;;;;4978811;28;20061;-42
2022/03/22 07:38:11;;;;;;;26.48;14.15;;;11.10;41.50;;;;;;4978104;28;20058;-42
2022/03/22 07:40:38;;;;;;;26.73;13.98;;;11.20;41.50;;;;;;4976274;28;20046;-42
2022/03/22 07:43:07;;;;;;;24.42;14.57;;;11.20;41.30;;;;;;4986397;28;20050;-42
2022/03/22 07:45:37;;;;;;;25.98;14.68;;;11.20;41.30;;;;;;4982526;28;20061;-42
2022/03/22 07:48:05;;;;;;;25.48;13.77;;;11.30;41.20;;;;;;4983616;28;20058;-42
2022/03/22 07:53:17;;;;;;;23.30;13.70;;;11.40;41.00;;;;;;4989190;28;20441;-42
2022/03/22 07:55:44;;;;;;;26.95;14.13;;;11.50;41.30;;;;;;4972589;28;20065;-43
2022/03/22 07:58:13;;;;;;;23.73;13.00;;;11.60;41.40;;;;;;4976730;28;20529;-42
2022/03/22 08:00:42;;;;;;;23.88;13.25;;;11.60;41.40;;;;;;4978411;28;20050;-44
2022/03/22 08:03:13;;;;;;;20.98;13.30;;;11.70;41.50;;;;;;4971994;28;20058;-42
2022/03/22 08:05:42;;;;;;;23.95;13.57;;;11.80;41.60;;;;;;4976700;28;20054;-43
2022/03/22 08:08:09;;;;;;;24.60;12.80;;;11.80;41.60;;;;;;4974484;28;20050;-46
2022/03/22 08:10:37;;;;;;;24.15;13.90;;;11.90;41.70;;;;;;4971256;28;20084;-43
2022/03/22 08:13:06;;;;;;;57.97;26.40;;;11.90;41.90;;;;;;4973949;28;20423;-45
2022/03/22 08:15:35;;;;;;;36.28;19.58;;;12.00;42.10;;;;;;4975260;28;20050;-42
2022/03/22 08:18:03;;;;;;;28.70;15.13;;;12.10;42.00;;;;;;4980044;28;20058;-43
2022/03/22 08:20:31;;;;;;;27.13;14.07;;;12.10;41.80;;;;;;4975707;28;20057;-42
2022/03/22 08:23:02;;;;;;;29.13;14.15;;;12.20;41.70;;;;;;4980835;28;20062;-43
2022/03/22 08:25:32;;;;;;;27.88;14.32;;;12.20;41.50;;;;;;4978326;28;20050;-44
2022/03/22 08:28:03;;;;;;;26.83;14.50;;;12.30;41.40;;;;;;4981650;28;20075;-42
2022/03/22 08:30:32;;;;;;;22.58;13.48;;;12.30;41.50;;;;;;4978552;28;20055;-42
2022/03/22 08:33:06;;;;;;;20.80;11.50;;;12.40;41.30;;;;;;4981633;28;20058;-42
2022/03/22 08:35:35;;;;;;;24.50;12.40;;;12.40;41.00;;;;;;4981300;28;20050;-43
2022/03/22 08:38:03;;;;;;;23.88;12.10;;;12.50;41.00;;;;;;4977749;28;20058;-43
2022/03/22 08:40:31;;;;;;;24.67;13.35;;;12.60;40.80;;;;;;4982028;28;20054;-42
2022/03/22 08:42:59;;;;;;;23.98;13.63;;;12.60;40.60;;;;;;4980742;28;20422;-43
2022/03/22 08:45:30;;;;;;;21.52;12.55;;;12.70;40.80;;;;;;4979577;28;20054;-45
2022/03/22 08:47:58;;;;;;;21.25;11.57;;;12.70;40.80;;;;;;4971647;28;20065;-43
2022/03/22 08:50:26;;;;;;;22.92;11.82;;;12.80;40.80;;;;;;4974731;28;20507;-42
2022/03/22 08:52:56;;;;;;;18.90;11.10;;;12.90;40.70;;;;;;4979984;28;20047;-42
2022/03/22 08:55:25;;;;;;;18.50;12.15;;;13.00;40.70;;;;;;4978693;28;20058;-43
2022/03/22 08:57:52;;;;;;;18.52;11.25;;;13.00;40.60;;;;;;4983160;28;20058;-43
2022/03/22 09:00:21;;;;;;;22.55;13.07;;;13.10;40.50;;;;;;4983619;28;20054;-43
2022/03/22 09:02:50;;;;;;;17.45;10.95;;;13.20;40.30;;;;;;4981712;28;20051;-43
2022/03/22 09:08:07;;;;;;;19.23;12.00;;;13.40;40.10;;;;;;4979558;28;20069;-43
2022/03/22 09:10:35;;;;;;;17.30;11.15;;;13.40;40.00;;;;;;4974104;28;20061;-42
2022/03/22 09:13:03;;;;;;;17.45;10.93;;;13.50;39.80;;;;;;4978379;28;20050;-42
2022/03/22 09:15:32;;;;;;;21.10;12.52;;;13.60;39.60;;;;;;4979477;28;20057;-43
2022/03/22 09:18:00;;;;;;;20.35;12.57;;;13.60;39.20;;;;;;4979026;28;20073;-48
2022/03/22 09:20:31;;;;;;;20.63;11.50;;;13.70;39.10;;;;;;4981455;28;20486;-43
2022/03/22 09:22:59;;;;;;;21.27;11.82;;;13.80;39.00;;;;;;4978510;28;20058;-42
2022/03/22 09:25:28;;;;;;;18.33;11.40;;;13.80;38.90;;;;;;4979936;28;20058;-42
2022/03/22 09:27:56;;;;;;;18.70;11.90;;;13.90;38.80;;;;;;4981687;28;20415;-42
2022/03/22 09:30:24;;;;;;;18.83;10.57;;;14.00;38.60;;;;;;4984105;28;20764;-42
2022/03/22 09:32:52;;;;;;;18.90;10.77;;;14.00;38.40;;;;;;4983750;28;20058;-42
2022/03/22 09:35:20;;;;;;;19.15;10.95;;;14.10;37.90;;;;;;4981551;28;20058;-48
2022/03/22 09:37:49;;;;;;;17.60;11.23;;;14.20;37.70;;;;;;4982839;28;20529;-43
2022/03/22 09:40:18;;;;;;;19.70;10.95;;;14.20;37.40;;;;;;4983699;28;20058;-46
2022/03/22 09:42:48;;;;;;;18.00;10.93;;;14.30;37.40;;;;;;4983487;28;20061;-43
2022/03/22 09:45:18;;;;;;;19.33;11.05;;;14.30;37.50;;;;;;4980521;28;20054;-42
2022/03/22 09:47:46;;;;;;;18.08;11.40;;;14.40;37.30;;;;;;4983589;28;20062;-42
2022/03/22 09:50:16;;;;;;;19.05;11.30;;;14.50;37.30;;;;;;4983191;28;20058;-43
2022/03/22 09:52:44;;;;;;;22.90;12.52;;;14.50;37.10;;;;;;4982058;28;20054;-42
2022/03/22 09:55:16;;;;;;;17.17;10.90;;;14.60;37.00;;;;;;4982880;28;20058;-43
2022/03/22 09:57:44;;;;;;;20.05;11.05;;;14.60;36.60;;;;;;4982659;28;20426;-42
2022/03/22 10:00:15;;;;;;;21.10;11.77;;;14.70;36.40;;;;;;4983314;28;20073;-44
2022/03/22 10:02:44;;;;;;;17.17;10.35;;;14.80;35.70;;;;;;4983863;28;20058;-42
2022/03/22 10:05:23;;;;;;;18.83;11.23;;;14.90;35.70;;;;;;4981748;28;20425;-45
2022/03/22 10:08:00;;;;;;;16.73;10.32;;;14.90;35.30;;;;;;4982653;28;20065;-42
2022/03/22 10:10:28;;;;;;;20.90;11.00;;;15.00;34.80;;;;;;4983196;28;20070;-44
2022/03/22 10:12:59;;;;;;;20.05;11.35;;;15.00;34.80;;;;;;4983219;28;20046;-43
2022/03/22 10:15:32;;;;;;;19.42;10.52;;;15.10;34.80;;;;;;4980924;28;20081;-43
2022/03/22 10:18:07;;;;;;;16.48;11.05;;;15.10;34.90;;;;;;4983366;28;20636;-42
2022/03/22 10:20:36;;;;;;;18.73;11.20;;;15.20;35.10;;;;;;4981920;28;20061;-43
2022/03/22 10:23:05;;;;;;;16.75;11.07;;;15.20;35.20;;;;;;4982646;28;20062;-42
2022/03/22 10:25:35;;;;;;;19.25;10.98;;;15.30;34.60;;;;;;4978500;28;20062;-43
2022/03/22 10:28:04;;;;;;;15.52;10.65;;;15.40;34.30;;;;;;4983461;28;20054;-43
2022/03/22 10:30:34;;;;;;;17.05;11.35;;;15.50;34.60;;;;;;4982892;28;20506;-46
2022/03/22 10:33:02;;;;;;;19.33;11.15;;;15.50;34.40;;;;;;4983064;28;20058;-42
2022/03/22 10:35:32;;;;;;;19.15;11.32;;;15.60;34.10;;;;;;4980226;28;20050;-43
2022/03/22 10:38:02;;;;;;;19.63;11.27;;;15.70;34.00;;;;;;4982118;28;20062;-43
2022/03/22 10:40:31;;;;;;;19.35;11.82;;;15.80;34.10;;;;;;4981899;28;20050;-43
2022/03/22 10:43:01;;;;;;;21.33;12.57;;;15.80;34.00;;;;;;4983026;28;20058;-46
2022/03/22 10:45:28;;;;;;;20.20;12.57;;;15.80;33.80;;;;;;4984270;28;20054;-43
2022/03/22 10:47:58;;;;;;;16.13;11.43;;;15.90;33.80;;;;;;4985587;28;20410;-42
2022/03/22 10:50:26;;;;;;;29.02;14.27;;;15.90;33.40;;;;;;4986009;28;20065;-42
2022/03/22 10:52:55;;;;;;;20.13;11.30;;;16.00;33.20;;;;;;4983092;28;20058;-42
2022/03/22 10:55:25;;;;;;;18.15;11.70;;;16.00;33.40;;;;;;4985605;28;20427;-42
2022/03/22 10:57:54;;;;;;;22.08;11.95;;;16.10;33.00;;;;;;4986270;28;20065;-43
2022/03/22 11:00:23;;;;;;;18.45;11.45;;;16.10;33.20;;;;;;4985551;28;20058;-43
2022/03/22 11:02:53;;;;;;;19.13;11.73;;;16.10;33.40;;;;;;4984953;28;20053;-43
2022/03/22 11:05:24;;;;;;;18.80;12.45;;;16.20;32.00;;;;;;4984484;28;20073;-42
2022/03/22 11:07:52;;;;;;;19.33;11.98;;;16.30;32.00;;;;;;4984349;28;20545;-42
2022/03/22 11:10:25;;;;;;;18.35;11.18;;;16.30;32.40;;;;;;4984652;28;20057;-43
2022/03/22 11:12:53;;;;;;;17.73;11.50;;;16.40;32.40;;;;;;4986315;28;20594;-45
2022/03/22 11:15:21;;;;;;;19.42;11.52;;;16.40;32.60;;;;;;4985076;28;20054;-43
2022/03/22 11:17:51;;;;;;;19.23;10.48;;;16.40;32.60;;;;;;4985652;28;20061;-42
2022/03/22 11:20:18;;;;;;;20.30;12.10;;;16.40;32.80;;;;;;4985334;28;20927;-42
2022/03/22 11:22:54;;;;;;;16.63;11.32;;;16.50;33.00;;;;;;4984861;28;20517;-42
2022/03/22 11:25:27;;;;;;;19.83;12.38;;;16.50;33.00;;;;;;4983683;28;20058;-43
2022/03/22 11:28:01;;;;;;;17.03;11.07;;;16.50;32.60;;;;;;4986073;28;20510;-42
2022/03/22 11:30:29;;;;;;;20.73;12.68;;;16.50;32.50;;;;;;4985993;28;20481;-42
2022/03/22 11:35:47;;;;;;;20.23;12.85;;;16.50;32.40;;;;;;4983507;28;20417;-44
2022/03/22 11:38:36;;;;;;;20.30;12.43;;;16.50;32.40;;;;;;4984248;28;20050;-42
2022/03/22 11:43:49;;;;;;;20.83;12.43;;;16.60;32.00;;;;;;4990896;28;20108;-43
2022/03/22 11:46:16;;;;;;;20.65;12.52;;;16.60;31.80;;;;;;4984255;28;20065;-42
2022/03/22 11:48:50;;;;;;;17.88;11.82;;;16.70;31.70;;;;;;4985724;28;20061;-42
2022/03/22 11:51:24;;;;;;;18.40;11.77;;;16.70;32.10;;;;;;4985970;28;20088;-42
2022/03/22 11:53:55;;;;;;;21.35;12.98;;;16.80;32.40;;;;;;4984418;28;20058;-43
2022/03/22 11:56:27;;;;;;;20.05;13.77;;;16.90;31.80;;;;;;4984214;28;20081;-43
2022/03/22 11:58:58;;;;;;;19.73;11.88;;;16.90;31.60;;;;;;4984984;28;20050;-42
2022/03/22 12:01:36;;;;;;;19.48;12.18;;;17.00;31.60;;;;;;4985208;28;20058;-43
2022/03/22 12:04:14;;;;;;;18.05;11.63;;;17.00;31.70;;;;;;4982697;28;20502;-42
2022/03/22 12:06:42;;;;;;;18.70;11.05;;;17.10;31.70;;;;;;4983896;28;20058;-43
2022/03/22 12:09:11;;;;;;;17.27;11.82;;;17.10;31.50;;;;;;4983749;28;20050;-42
2022/03/22 12:11:49;;;;;;;17.23;10.90;;;17.20;32.00;;;;;;4984342;28;20054;-42
2022/03/22 12:14:27;;;;;;;18.70;11.20;;;17.20;31.40;;;;;;4983458;28;20487;-43
2022/03/22 12:16:56;;;;;;;20.88;11.68;;;17.20;31.60;;;;;;4984348;28;20054;-43
2022/03/22 12:19:27;;;;;;;19.88;11.23;;;17.30;32.00;;;;;;4983442;28;20054;-43
2022/03/22 12:21:55;;;;;;;19.27;12.27;;;17.30;31.60;;;;;;4984522;28;20058;-43
2022/03/22 12:24:27;;;;;;;20.23;12.52;;;17.30;31.60;;;;;;4981440;28;20073;-43
2022/03/22 12:26:58;;;;;;;21.75;12.80;;;17.40;32.20;;;;;;4982881;28;20061;-43
2022/03/22 12:29:26;;;;;;;19.63;12.63;;;17.30;31.70;;;;;;4982506;28;20050;-43
2022/03/22 12:31:55;;;;;;;19.40;12.27;;;17.40;31.90;;;;;;4984747;28;20051;-43
2022/03/22 12:34:26;;;;;;;23.23;12.80;;;17.30;31.20;;;;;;4982739;28;20060;-43
2022/03/22 12:36:53;;;;;;;18.23;11.73;;;17.40;31.60;;;;;;4985148;28;20069;-43
2022/03/22 12:39:21;;;;;;;18.98;11.65;;;17.40;32.00;;;;;;4982725;28;20509;-43
2022/03/22 12:41:50;;;;;;;19.63;11.93;;;17.30;31.60;;;;;;4985002;28;20058;-43
2022/03/22 12:44:18;;;;;;;19.83;11.32;;;17.30;31.50;;;;;;4984406;28;20050;-43
2022/03/22 12:46:47;;;;;;;21.10;12.60;;;17.30;31.40;;;;;;4983988;28;20065;-42
2022/03/22 12:49:17;;;;;;;21.80;12.90;;;17.40;31.40;;;;;;4983111;28;20593;-43
2022/03/22 12:51:44;;;;;;;24.00;12.18;;;17.30;31.10;;;;;;4981344;28;20057;-44
2022/03/22 12:54:17;;;;;;;21.17;12.68;;;17.40;31.10;;;;;;4981733;28;20042;-48
2022/03/22 12:56:46;;;;;;;16.92;11.20;;;17.40;30.70;;;;;;4984409;28;20054;-43
2022/03/22 12:59:21;;;;;;;21.55;11.75;;;17.40;30.80;;;;;;4984907;28;20506;-46
2022/03/22 13:01:57;;;;;;;19.63;12.20;;;17.40;30.80;;;;;;4984010;28;20054;-43
2022/03/22 13:04:26;;;;;;;17.95;11.05;;;17.40;31.20;;;;;;4983093;28;20061;-43
2022/03/22 13:06:59;;;;;;;17.92;11.45;;;17.50;31.60;;;;;;4983246;28;20057;-43
2022/03/22 13:12:13;;;;;;;17.50;10.43;;;17.50;31.20;;;;;;4984791;28;20059;-46
2022/03/22 13:17:29;;;;;;;17.73;10.73;;;17.60;30.80;;;;;;4989099;28;20065;-43
2022/03/22 13:19:58;;;;;;;17.63;10.23;;;17.60;30.50;;;;;;4983594;28;20062;-45
2022/03/22 13:22:29;;;;;;;16.80;9.63;;;17.60;30.90;;;;;;4980496;28;20453;-43